createdAt,value
2019-03-21T00:02:10.578Z,28.67
2019-03-21T00:07:11.899Z,27.85
2019-03-21T00:12:13.254Z,29.57
2019-03-21T00:17:32.506Z,27.80
2019-03-21T00:22:33.833Z,30.08
2019-03-21T00:27:35.226Z,29.63
2019-03-21T00:32:36.549Z,31.73
2019-03-21T00:37:38.008Z,29.00
2019-03-21T00:42:39.517Z,30.57
2019-03-21T00:47:41.204Z,30.05
2019-03-21T00:52:44.532Z,30.62
2019-03-21T00:57:47.033Z,30.57
2019-03-21T01:02:48.626Z,30.02
2019-03-21T01:07:50.077Z,29.18
2019-03-21T01:12:51.392Z,31.57
2019-03-21T01:17:54.609Z,29.40
2019-03-21T01:22:55.998Z,30.60
2019-03-21T01:27:57.322Z,28.52
2019-03-21T01:32:58.604Z,29.63
2019-03-21T01:38:00.258Z,30.80
2019-03-21T01:43:01.787Z,30.12
2019-03-21T01:48:05.942Z,29.63
2019-03-21T01:53:07.400Z,31.00
2019-03-21T01:58:08.924Z,31.42
2019-03-21T02:03:11.465Z,32.78
2019-03-21T02:08:13.127Z,29.55
2019-03-21T02:13:15.591Z,31.73
2019-03-21T02:18:17.090Z,28.27
2019-03-21T02:23:18.527Z,31.42
2019-03-21T02:28:19.952Z,33.05
2019-03-21T02:33:37.971Z,32.00
2019-03-21T02:38:39.686Z,30.77
2019-03-21T02:43:41.197Z,31.95
2019-03-21T02:48:44.155Z,31.12
2019-03-21T02:53:46.033Z,32.45
2019-03-21T02:58:49.592Z,33.40
2019-03-21T03:03:51.565Z,32.78
2019-03-21T03:08:52.960Z,39.00
2019-03-21T03:13:54.958Z,33.38
2019-03-21T03:18:56.479Z,34.33
2019-03-21T03:23:59.602Z,33.90
2019-03-21T03:29:01.120Z,35.28
2019-03-21T03:34:03.074Z,32.83
2019-03-21T03:39:06.528Z,35.80
2019-03-21T03:44:09.153Z,35.83
2019-03-21T03:49:11.307Z,36.55
2019-03-21T03:54:13.737Z,34.98
2019-03-21T03:59:15.426Z,34.83
2019-03-21T04:04:16.999Z,35.83
2019-03-21T04:09:18.345Z,39.45
2019-03-21T04:14:19.782Z,36.80
2019-03-21T04:19:39.917Z,36.53
2019-03-21T04:24:41.238Z,37.08
2019-03-21T04:29:42.655Z,33.67
2019-03-21T04:34:44.151Z,32.10
2019-03-21T04:39:45.780Z,31.75
2019-03-21T04:44:47.205Z,32.17
2019-03-21T04:49:49.590Z,36.48
2019-03-21T04:54:50.901Z,34.67
2019-03-21T04:59:52.337Z,35.08
2019-03-21T05:04:53.683Z,31.75
2019-03-21T05:09:55.020Z,31.45
2019-03-21T05:14:56.335Z,34.83
2019-03-21T05:19:57.732Z,35.58
2019-03-21T05:24:59.039Z,37.28
2019-03-21T05:30:00.467Z,43.23
2019-03-21T05:35:02.632Z,39.55
2019-03-21T05:40:14.734Z,44.23
2019-03-21T05:45:22.555Z,45.52
2019-03-21T05:50:23.966Z,45.98
2019-03-21T05:55:26.827Z,41.83
2019-03-21T06:00:40.268Z,44.70
2019-03-21T06:05:49.998Z,44.77
2019-03-21T06:10:51.268Z,42.88
2019-03-21T06:15:52.868Z,48.78
2019-03-21T06:21:07.738Z,48.65
2019-03-21T06:26:20.757Z,49.55
2019-03-21T06:31:22.220Z,48.60
2019-03-21T06:36:23.593Z,49.58
2019-03-21T06:41:32.764Z,51.05
2019-03-21T06:46:48.504Z,59.15
2019-03-21T06:51:39.829Z,56.45
2019-03-21T06:56:41.265Z,57.38
2019-03-21T07:01:43.569Z,58.60
2019-03-21T07:06:44.851Z,57.30
2019-03-21T07:11:46.304Z,58.20
2019-03-21T07:16:47.859Z,61.13
2019-03-21T07:21:49.220Z,64.97
2019-03-21T07:26:50.874Z,73.35
2019-03-21T07:31:52.286Z,67.32
2019-03-21T07:36:53.813Z,60.52
2019-03-21T07:41:55.135Z,55.08
2019-03-21T07:46:56.544Z,55.40
2019-03-21T07:51:57.975Z,50.17
2019-03-21T07:56:59.386Z,51.23
2019-03-21T08:02:00.832Z,51.85
2019-03-21T08:07:04.640Z,48.90
2019-03-21T08:12:06.859Z,48.70
2019-03-21T08:17:08.664Z,48.08
2019-03-21T08:22:11.198Z,48.08
2019-03-21T08:27:12.934Z,48.10
2019-03-21T08:32:15.969Z,46.33
2019-03-21T08:37:37.678Z,46.70
2019-03-21T08:42:39.078Z,46.50
2019-03-21T08:47:40.501Z,46.63
2019-03-21T08:52:42.066Z,46.63
2019-03-21T08:57:46.702Z,45.00
2019-03-21T09:02:48.540Z,40.23
2019-03-21T09:07:49.828Z,42.83
2019-03-21T09:12:51.203Z,43.02
2019-03-21T09:17:55.535Z,39.23
2019-03-21T09:22:57.230Z,42.83
2019-03-21T09:28:02.856Z,44.55
2019-03-21T09:33:01.886Z,43.85
2019-03-21T09:38:03.719Z,42.65
2019-03-21T09:43:05.253Z,46.35
2019-03-21T09:48:06.639Z,46.77
2019-03-21T09:53:08.452Z,52.70
2019-03-21T09:58:11.413Z,51.23
2019-03-21T10:03:14.321Z,51.40
2019-03-21T10:08:16.341Z,50.98
2019-03-21T10:13:17.933Z,50.15
2019-03-21T10:18:19.539Z,44.03
2019-03-21T10:23:21.048Z,45.50
2019-03-21T10:28:23.203Z,41.58
2019-03-21T10:33:24.720Z,42.75
2019-03-21T10:38:26.196Z,44.08
2019-03-21T10:43:27.730Z,40.65
2019-03-21T10:48:32.606Z,36.05
2019-03-21T10:53:34.081Z,38.33
2019-03-21T10:58:39.095Z,39.83
2019-03-21T11:03:40.735Z,37.55
2019-03-21T11:08:45.988Z,37.33
2019-03-21T11:13:47.798Z,33.65
2019-03-21T11:18:51.017Z,36.35
2019-03-21T11:23:52.972Z,33.02
2019-03-21T11:28:54.264Z,31.12
2019-03-21T11:33:55.706Z,31.48
2019-03-21T11:38:57.126Z,29.42
2019-03-21T11:43:58.848Z,28.92
2019-03-21T11:49:01.136Z,28.92
2019-03-21T11:54:03.163Z,27.45
2019-03-21T11:59:04.758Z,32.95
2019-03-21T12:04:06.315Z,30.92
2019-03-21T12:09:08.566Z,30.25
2019-03-21T12:14:11.828Z,28.98
2019-03-21T12:19:13.337Z,26.25
2019-03-21T12:24:16.263Z,26.77
2019-03-21T12:29:20.115Z,28.52
2019-03-21T12:34:21.970Z,29.37
2019-03-21T12:39:29.032Z,28.50
2019-03-21T12:44:30.470Z,27.40
2019-03-21T12:49:33.783Z,30.43
2019-03-21T12:54:35.321Z,30.27
2019-03-21T12:59:36.789Z,29.70
2019-03-21T13:04:40.263Z,28.42
2019-03-21T13:09:42.419Z,28.00
2019-03-21T13:14:43.884Z,27.40
2019-03-21T13:19:46.618Z,28.60
2019-03-21T13:24:48.254Z,28.50
2019-03-21T13:29:50.106Z,27.70
2019-03-21T13:34:51.420Z,28.83
2019-03-21T13:39:52.969Z,27.00
2019-03-21T13:44:54.342Z,25.70
2019-03-21T13:49:56.793Z,24.55
2019-03-21T14:00:20.981Z,24.27
2019-03-21T14:05:22.601Z,25.43
2019-03-21T14:10:43.014Z,25.85
2019-03-21T14:15:45.510Z,23.70
2019-03-21T14:20:47.270Z,24.27
2019-03-21T14:25:48.755Z,24.85
2019-03-21T14:30:52.013Z,26.27
2019-03-21T14:36:03.994Z,24.92
2019-03-21T14:41:07.612Z,25.10
2019-03-21T14:46:09.194Z,22.30
2019-03-21T14:51:10.567Z,23.50
2019-03-21T14:56:12.023Z,21.90
2019-03-21T15:01:16.446Z,22.80
2019-03-21T15:06:18.725Z,20.35
2019-03-21T15:11:21.452Z,21.68
2019-03-21T15:16:24.931Z,19.85
2019-03-21T15:21:27.279Z,20.27
2019-03-21T15:26:28.923Z,19.92
2019-03-21T15:31:31.071Z,19.48
2019-03-21T15:36:34.120Z,20.92
2019-03-21T15:41:55.555Z,21.82
2019-03-21T15:46:56.888Z,19.62
2019-03-21T15:52:00.224Z,19.90
2019-03-21T15:57:01.649Z,20.60
2019-03-21T16:02:03.404Z,19.62
2019-03-21T16:07:04.848Z,21.68
2019-03-21T16:12:09.529Z,22.30
2019-03-21T16:17:10.863Z,22.48
2019-03-21T16:22:14.137Z,23.85
2019-03-21T16:27:17.736Z,24.52
2019-03-21T16:32:19.093Z,24.55
2019-03-21T16:37:21.116Z,22.77
2019-03-21T16:42:22.539Z,24.52
2019-03-21T16:47:24.209Z,24.77
2019-03-21T16:52:25.827Z,26.23
2019-03-21T16:57:28.203Z,25.85
2019-03-21T17:02:30.620Z,25.90
2019-03-21T17:07:32.103Z,25.95
2019-03-21T17:12:37.419Z,25.10
2019-03-21T17:17:39.180Z,26.37
2019-03-21T17:22:40.653Z,26.12
2019-03-21T17:27:42.412Z,25.20
2019-03-21T17:32:44.653Z,27.30
2019-03-21T17:37:46.956Z,27.75
2019-03-21T17:42:48.395Z,26.68
2019-03-21T17:47:49.918Z,27.20
2019-03-21T17:52:52.594Z,28.12
2019-03-21T17:57:54.287Z,28.70
2019-03-21T18:02:56.651Z,29.92
2019-03-21T18:07:58.113Z,31.17
2019-03-21T18:13:01.802Z,33.35
2019-03-21T18:18:03.656Z,33.78
2019-03-21T18:23:05.276Z,34.13
2019-03-21T18:28:08.959Z,33.15
2019-03-21T18:33:12.179Z,31.15
2019-03-21T18:38:13.880Z,33.73
2019-03-21T18:43:15.238Z,34.60
2019-03-21T18:48:16.710Z,33.70
2019-03-21T18:53:18.168Z,33.48
2019-03-21T18:58:19.590Z,34.08
2019-03-21T19:03:20.922Z,34.13
2019-03-21T19:08:22.327Z,34.83
2019-03-21T19:13:23.708Z,34.15
2019-03-21T19:18:25.494Z,37.38
2019-03-21T19:23:30.047Z,37.83
2019-03-21T19:28:31.609Z,34.95
2019-03-21T19:33:33.324Z,38.63
2019-03-21T19:38:34.770Z,36.63
2019-03-21T19:43:36.523Z,39.30
2019-03-21T19:48:49.415Z,38.63
2019-03-21T19:53:41.939Z,34.33
2019-03-21T19:58:45.147Z,36.63
2019-03-21T20:03:47.200Z,35.98
2019-03-21T20:08:48.742Z,37.73
2019-03-21T20:13:50.464Z,36.93
2019-03-21T20:18:51.858Z,38.17
2019-03-21T20:23:53.387Z,40.03
2019-03-21T20:28:54.850Z,36.90
2019-03-21T20:33:57.064Z,35.85
2019-03-21T20:38:58.497Z,37.73
2019-03-21T20:44:00.053Z,38.67
2019-03-21T20:49:01.558Z,35.92
2019-03-21T20:54:04.791Z,38.33
2019-03-21T20:59:08.617Z,38.65
2019-03-21T21:04:12.124Z,35.48
2019-03-21T21:09:13.891Z,39.18
2019-03-21T21:14:15.269Z,43.87
2019-03-21T21:19:16.793Z,46.80
2019-03-21T21:24:18.475Z,52.13
2019-03-21T21:29:20.108Z,52.50
2019-03-21T21:34:21.524Z,51.85
2019-03-21T21:39:26.369Z,55.03
2019-03-21T21:44:27.945Z,52.27
2019-03-21T21:49:29.386Z,55.85
2019-03-21T21:54:30.833Z,48.10
2019-03-21T21:59:32.588Z,45.08
2019-03-21T22:04:34.706Z,47.27
2019-03-21T22:09:38.155Z,43.38
2019-03-21T22:14:40.084Z,44.70
2019-03-21T22:19:44.320Z,43.70
2019-03-21T22:24:57.389Z,42.78
2019-03-21T22:30:17.293Z,48.52
2019-03-21T22:35:18.961Z,45.15
2019-03-21T22:40:20.429Z,43.48
2019-03-21T22:45:21.935Z,45.98
2019-03-21T22:50:24.163Z,45.10
2019-03-21T22:55:25.875Z,48.30
2019-03-21T23:00:38.850Z,45.28
2019-03-21T23:05:40.472Z,43.05
2019-03-21T23:10:41.971Z,45.98
2019-03-21T23:15:43.803Z,46.00
2019-03-21T23:20:45.290Z,43.73
2019-03-21T23:25:46.874Z,51.92
2019-03-21T23:30:48.573Z,53.30
2019-03-21T23:35:50.991Z,50.95
2019-03-21T23:40:56.275Z,51.63
2019-03-21T23:45:57.698Z,52.13
2019-03-21T23:50:59.318Z,47.30
2019-03-21T23:56:00.933Z,49.67
